sensor_id;sensor_type;location;lat;lon;timestamp;P1;durP1;ratioP1;P2;durP2;ratioP2
22851;SDS011;11592;45.460;9.240;2023-04-09T00:02:01;18.02;;;12.20;;
22851;SDS011;11592;45.460;9.240;2023-04-09T00:04:28;26.58;;;12.93;;
22851;SDS011;11592;45.460;9.240;2023-04-09T00:06:54;33.55;;;13.93;;
22851;SDS011;11592;45.460;9.240;2023-04-09T00:09:21;21.35;;;12.45;;
22851;SDS011;11592;45.460;9.240;2023-04-09T00:11:48;21.65;;;12.90;;
22851;SDS011;11592;45.460;9.240;2023-04-09T00:14:15;27.98;;;13.73;;
22851;SDS011;11592;45.460;9.240;2023-04-09T00:16:41;24.48;;;13.07;;
22851;SDS011;11592;45.460;9.240;2023-04-09T00:19:08;19.75;;;13.05;;
22851;SDS011;11592;45.460;9.240;2023-04-09T00:21:36;17.98;;;12.07;;
22851;SDS011;11592;45.460;9.240;2023-04-09T00:24:03;17.70;;;11.38;;
22851;SDS011;11592;45.460;9.240;2023-04-09T00:26:30;17.88;;;11.57;;
22851;SDS011;11592;45.460;9.240;2023-04-09T00:28:57;20.85;;;12.98;;
22851;SDS011;11592;45.460;9.240;2023-04-09T00:31:24;19.67;;;11.60;;
22851;SDS011;11592;45.460;9.240;2023-04-09T00:33:51;18.20;;;11.23;;
22851;SDS011;11592;45.460;9.240;2023-04-09T00:36:17;19.60;;;12.40;;
22851;SDS011;11592;45.460;9.240;2023-04-09T00:38:44;20.52;;;12.35;;
22851;SDS011;11592;45.460;9.240;2023-04-09T00:41:13;18.27;;;12.00;;
22851;SDS011;11592;45.460;9.240;2023-04-09T00:43:39;19.58;;;11.65;;
22851;SDS011;11592;45.460;9.240;2023-04-09T00:46:06;19.80;;;12.23;;
22851;SDS011;11592;45.460;9.240;2023-04-09T00:48:33;18.60;;;12.60;;
22851;SDS011;11592;45.460;9.240;2023-04-09T00:51:00;19.10;;;11.63;;
22851;SDS011;11592;45.460;9.240;2023-04-09T00:53:27;18.60;;;13.25;;
22851;SDS011;11592;45.460;9.240;2023-04-09T00:55:54;19.45;;;12.10;;
22851;SDS011;11592;45.460;9.240;2023-04-09T00:58:20;19.73;;;11.98;;
22851;SDS011;11592;45.460;9.240;2023-04-09T01:00:47;18.05;;;11.93;;
22851;SDS011;11592;45.460;9.240;2023-04-09T01:03:14;19.45;;;11.85;;
22851;SDS011;11592;45.460;9.240;2023-04-09T01:14:05;20.67;;;12.15;;
22851;SDS011;11592;45.460;9.240;2023-04-09T01:16:49;17.27;;;11.38;;
22851;SDS011;11592;45.460;9.240;2023-04-09T01:22:13;19.98;;;12.05;;
22851;SDS011;11592;45.460;9.240;2023-04-09T01:25:06;17.15;;;10.82;;
22851;SDS011;11592;45.460;9.240;2023-04-09T01:30:32;18.40;;;11.40;;
22851;SDS011;11592;45.460;9.240;2023-04-09T01:33:00;18.90;;;11.95;;
22851;SDS011;11592;45.460;9.240;2023-04-09T01:35:28;19.92;;;12.38;;
22851;SDS011;11592;45.460;9.240;2023-04-09T01:37:55;17.10;;;11.57;;
22851;SDS011;11592;45.460;9.240;2023-04-09T01:40:23;18.58;;;11.65;;
22851;SDS011;11592;45.460;9.240;2023-04-09T01:42:50;19.10;;;12.25;;
22851;SDS011;11592;45.460;9.240;2023-04-09T01:45:18;21.80;;;11.52;;
22851;SDS011;11592;45.460;9.240;2023-04-09T01:47:46;18.52;;;11.95;;
22851;SDS011;11592;45.460;9.240;2023-04-09T01:50:13;19.70;;;11.77;;
22851;SDS011;11592;45.460;9.240;2023-04-09T01:52:40;20.25;;;12.02;;
22851;SDS011;11592;45.460;9.240;2023-04-09T01:55:07;20.45;;;12.38;;
22851;SDS011;11592;45.460;9.240;2023-04-09T01:57:34;20.95;;;12.25;;
22851;SDS011;11592;45.460;9.240;2023-04-09T02:00:01;20.90;;;12.20;;
22851;SDS011;11592;45.460;9.240;2023-04-09T02:02:36;19.65;;;11.88;;
22851;SDS011;11592;45.460;9.240;2023-04-09T02:05:11;21.30;;;12.73;;
22851;SDS011;11592;45.460;9.240;2023-04-09T02:07:43;23.02;;;12.25;;
22851;SDS011;11592;45.460;9.240;2023-04-09T02:10:12;23.23;;;12.50;;
22851;SDS011;11592;45.460;9.240;2023-04-09T02:12:44;24.88;;;12.85;;
22851;SDS011;11592;45.460;9.240;2023-04-09T02:15:15;19.30;;;12.38;;
22851;SDS011;11592;45.460;9.240;2023-04-09T02:17:43;22.13;;;12.82;;
22851;SDS011;11592;45.460;9.240;2023-04-09T02:20:09;21.63;;;12.00;;
22851;SDS011;11592;45.460;9.240;2023-04-09T02:22:37;22.90;;;12.70;;
22851;SDS011;11592;45.460;9.240;2023-04-09T02:25:04;20.58;;;12.52;;
22851;SDS011;11592;45.460;9.240;2023-04-09T02:27:32;21.48;;;13.13;;
22851;SDS011;11592;45.460;9.240;2023-04-09T02:29:58;21.60;;;12.00;;
22851;SDS011;11592;45.460;9.240;2023-04-09T02:32:25;19.92;;;11.85;;
22851;SDS011;11592;45.460;9.240;2023-04-09T02:34:52;20.00;;;12.98;;
22851;SDS011;11592;45.460;9.240;2023-04-09T02:37:19;16.90;;;11.65;;
22851;SDS011;11592;45.460;9.240;2023-04-09T02:39:45;22.17;;;13.25;;
22851;SDS011;11592;45.460;9.240;2023-04-09T02:42:12;18.23;;;11.75;;
22851;SDS011;11592;45.460;9.240;2023-04-09T02:44:39;24.13;;;12.35;;
22851;SDS011;11592;45.460;9.240;2023-04-09T02:47:06;20.40;;;12.40;;
22851;SDS011;11592;45.460;9.240;2023-04-09T02:49:33;16.52;;;10.93;;
22851;SDS011;11592;45.460;9.240;2023-04-09T02:51:59;20.17;;;12.20;;
22851;SDS011;11592;45.460;9.240;2023-04-09T02:54:26;20.10;;;12.10;;
22851;SDS011;11592;45.460;9.240;2023-04-09T02:56:53;21.08;;;12.48;;
22851;SDS011;11592;45.460;9.240;2023-04-09T02:59:20;21.98;;;12.30;;
22851;SDS011;11592;45.460;9.240;2023-04-09T03:01:46;21.77;;;12.77;;
22851;SDS011;11592;45.460;9.240;2023-04-09T03:04:13;18.73;;;12.50;;
22851;SDS011;11592;45.460;9.240;2023-04-09T03:06:41;21.83;;;12.05;;
22851;SDS011;11592;45.460;9.240;2023-04-09T03:09:07;18.58;;;12.05;;
22851;SDS011;11592;45.460;9.240;2023-04-09T03:11:34;21.08;;;12.48;;
22851;SDS011;11592;45.460;9.240;2023-04-09T03:14:01;21.35;;;12.73;;
22851;SDS011;11592;45.460;9.240;2023-04-09T03:16:28;21.10;;;13.00;;
22851;SDS011;11592;45.460;9.240;2023-04-09T03:18:54;20.63;;;13.40;;
22851;SDS011;11592;45.460;9.240;2023-04-09T03:21:21;23.92;;;14.30;;
22851;SDS011;11592;45.460;9.240;2023-04-09T03:23:48;21.38;;;13.95;;
22851;SDS011;11592;45.460;9.240;2023-04-09T03:26:15;22.42;;;13.95;;
22851;SDS011;11592;45.460;9.240;2023-04-09T03:28:41;22.80;;;13.07;;
22851;SDS011;11592;45.460;9.240;2023-04-09T03:31:08;25.50;;;14.43;;
22851;SDS011;11592;45.460;9.240;2023-04-09T03:33:35;22.90;;;14.27;;
22851;SDS011;11592;45.460;9.240;2023-04-09T03:36:02;21.15;;;13.32;;
22851;SDS011;11592;45.460;9.240;2023-04-09T03:38:29;25.85;;;14.50;;
22851;SDS011;11592;45.460;9.240;2023-04-09T03:40:56;20.33;;;13.30;;
22851;SDS011;11592;45.460;9.240;2023-04-09T03:43:23;23.13;;;13.98;;
22851;SDS011;11592;45.460;9.240;2023-04-09T03:45:49;24.95;;;13.55;;
22851;SDS011;11592;45.460;9.240;2023-04-09T03:48:16;24.58;;;14.50;;
22851;SDS011;11592;45.460;9.240;2023-04-09T03:50:43;23.92;;;15.13;;
22851;SDS011;11592;45.460;9.240;2023-04-09T03:53:10;28.73;;;14.80;;
22851;SDS011;11592;45.460;9.240;2023-04-09T03:55:36;22.83;;;14.45;;
22851;SDS011;11592;45.460;9.240;2023-04-09T03:58:03;24.90;;;14.45;;
22851;SDS011;11592;45.460;9.240;2023-04-09T04:00:30;20.65;;;12.93;;
22851;SDS011;11592;45.460;9.240;2023-04-09T04:02:57;21.85;;;14.45;;
22851;SDS011;11592;45.460;9.240;2023-04-09T04:05:24;25.85;;;15.02;;
22851;SDS011;11592;45.460;9.240;2023-04-09T04:07:51;25.77;;;14.77;;
22851;SDS011;11592;45.460;9.240;2023-04-09T04:10:18;23.70;;;14.30;;
22851;SDS011;11592;45.460;9.240;2023-04-09T04:12:45;24.15;;;14.05;;
22851;SDS011;11592;45.460;9.240;2023-04-09T04:15:12;25.40;;;14.80;;
22851;SDS011;11592;45.460;9.240;2023-04-09T04:17:39;25.60;;;15.20;;
22851;SDS011;11592;45.460;9.240;2023-04-09T04:20:06;26.42;;;14.60;;
22851;SDS011;11592;45.460;9.240;2023-04-09T04:22:33;23.95;;;14.48;;
22851;SDS011;11592;45.460;9.240;2023-04-09T04:25:02;22.17;;;14.15;;
22851;SDS011;11592;45.460;9.240;2023-04-09T04:27:29;25.17;;;13.85;;
22851;SDS011;11592;45.460;9.240;2023-04-09T04:29:56;24.52;;;14.20;;
22851;SDS011;11592;45.460;9.240;2023-04-09T04:32:25;26.23;;;15.10;;
22851;SDS011;11592;45.460;9.240;2023-04-09T04:34:52;24.45;;;14.82;;
22851;SDS011;11592;45.460;9.240;2023-04-09T04:37:19;24.50;;;13.50;;
22851;SDS011;11592;45.460;9.240;2023-04-09T04:39:46;19.85;;;12.70;;
22851;SDS011;11592;45.460;9.240;2023-04-09T04:42:13;26.13;;;14.10;;
22851;SDS011;11592;45.460;9.240;2023-04-09T04:44:39;20.30;;;12.65;;
22851;SDS011;11592;45.460;9.240;2023-04-09T04:47:06;22.73;;;13.45;;
22851;SDS011;11592;45.460;9.240;2023-04-09T04:49:33;22.58;;;13.80;;
22851;SDS011;11592;45.460;9.240;2023-04-09T04:51:59;23.98;;;14.18;;
22851;SDS011;11592;45.460;9.240;2023-04-09T04:54:26;24.10;;;14.40;;
22851;SDS011;11592;45.460;9.240;2023-04-09T04:56:53;26.73;;;13.93;;
22851;SDS011;11592;45.460;9.240;2023-04-09T04:59:21;23.90;;;13.68;;
22851;SDS011;11592;45.460;9.240;2023-04-09T05:01:48;22.10;;;13.23;;
22851;SDS011;11592;45.460;9.240;2023-04-09T05:04:15;24.70;;;13.73;;
22851;SDS011;11592;45.460;9.240;2023-04-09T05:06:41;23.70;;;13.90;;
22851;SDS011;11592;45.460;9.240;2023-04-09T05:09:08;20.73;;;12.98;;
22851;SDS011;11592;45.460;9.240;2023-04-09T05:11:35;24.42;;;13.55;;
22851;SDS011;11592;45.460;9.240;2023-04-09T05:14:01;21.55;;;12.80;;
22851;SDS011;11592;45.460;9.240;2023-04-09T05:16:29;24.00;;;13.13;;
22851;SDS011;11592;45.460;9.240;2023-04-09T05:18:58;21.73;;;12.63;;
22851;SDS011;11592;45.460;9.240;2023-04-09T05:21:25;22.25;;;11.98;;
22851;SDS011;11592;45.460;9.240;2023-04-09T05:23:52;20.70;;;12.63;;
22851;SDS011;11592;45.460;9.240;2023-04-09T05:26:19;23.60;;;13.77;;
22851;SDS011;11592;45.460;9.240;2023-04-09T05:28:46;20.10;;;12.13;;
22851;SDS011;11592;45.460;9.240;2023-04-09T05:31:13;20.63;;;12.50;;
22851;SDS011;11592;45.460;9.240;2023-04-09T05:33:41;20.27;;;13.13;;
22851;SDS011;11592;45.460;9.240;2023-04-09T05:36:13;19.92;;;12.32;;
22851;SDS011;11592;45.460;9.240;2023-04-09T05:38:44;22.05;;;13.40;;
22851;SDS011;11592;45.460;9.240;2023-04-09T05:41:11;21.00;;;13.18;;
22851;SDS011;11592;45.460;9.240;2023-04-09T05:43:38;19.45;;;12.27;;
22851;SDS011;11592;45.460;9.240;2023-04-09T05:46:06;19.15;;;12.68;;
22851;SDS011;11592;45.460;9.240;2023-04-09T05:48:35;18.27;;;12.50;;
22851;SDS011;11592;45.460;9.240;2023-04-09T05:51:02;23.27;;;12.98;;
22851;SDS011;11592;45.460;9.240;2023-04-09T05:53:30;20.85;;;12.85;;
22851;SDS011;11592;45.460;9.240;2023-04-09T05:55:57;22.98;;;12.90;;
22851;SDS011;11592;45.460;9.240;2023-04-09T05:58:24;20.25;;;13.48;;
22851;SDS011;11592;45.460;9.240;2023-04-09T06:00:51;20.02;;;12.15;;
22851;SDS011;11592;45.460;9.240;2023-04-09T06:03:17;23.95;;;13.38;;
22851;SDS011;11592;45.460;9.240;2023-04-09T06:05:45;25.10;;;13.48;;
22851;SDS011;11592;45.460;9.240;2023-04-09T06:08:11;21.98;;;13.52;;
22851;SDS011;11592;45.460;9.240;2023-04-09T06:10:39;21.38;;;13.00;;
22851;SDS011;11592;45.460;9.240;2023-04-09T06:13:06;21.13;;;13.30;;
22851;SDS011;11592;45.460;9.240;2023-04-09T06:15:36;19.83;;;12.63;;
22851;SDS011;11592;45.460;9.240;2023-04-09T06:18:03;20.55;;;12.35;;
22851;SDS011;11592;45.460;9.240;2023-04-09T06:20:30;19.70;;;13.40;;
22851;SDS011;11592;45.460;9.240;2023-04-09T06:22:57;24.15;;;13.45;;
22851;SDS011;11592;45.460;9.240;2023-04-09T06:25:24;19.00;;;12.60;;
22851;SDS011;11592;45.460;9.240;2023-04-09T06:27:51;21.83;;;12.68;;
22851;SDS011;11592;45.460;9.240;2023-04-09T06:30:17;18.75;;;12.40;;
22851;SDS011;11592;45.460;9.240;2023-04-09T06:32:44;23.23;;;13.73;;
22851;SDS011;11592;45.460;9.240;2023-04-09T06:35:20;20.42;;;12.35;;
22851;SDS011;11592;45.460;9.240;2023-04-09T06:37:47;22.02;;;13.75;;
22851;SDS011;11592;45.460;9.240;2023-04-09T06:40:14;18.13;;;11.82;;
22851;SDS011;11592;45.460;9.240;2023-04-09T06:42:41;18.65;;;11.95;;
22851;SDS011;11592;45.460;9.240;2023-04-09T06:45:08;21.50;;;11.85;;
22851;SDS011;11592;45.460;9.240;2023-04-09T06:47:35;19.30;;;12.10;;
22851;SDS011;11592;45.460;9.240;2023-04-09T06:50:02;18.73;;;11.43;;
22851;SDS011;11592;45.460;9.240;2023-04-09T06:52:30;18.80;;;11.27;;
22851;SDS011;11592;45.460;9.240;2023-04-09T06:54:56;20.02;;;11.38;;
22851;SDS011;11592;45.460;9.240;2023-04-09T06:57:24;16.27;;;11.60;;
22851;SDS011;11592;45.460;9.240;2023-04-09T06:59:51;16.80;;;11.70;;
22851;SDS011;11592;45.460;9.240;2023-04-09T07:02:18;20.80;;;12.57;;
22851;SDS011;11592;45.460;9.240;2023-04-09T07:04:45;18.05;;;12.40;;
22851;SDS011;11592;45.460;9.240;2023-04-09T07:07:13;18.60;;;11.93;;
22851;SDS011;11592;45.460;9.240;2023-04-09T07:09:39;18.00;;;12.50;;
22851;SDS011;11592;45.460;9.240;2023-04-09T07:12:07;25.45;;;12.02;;
22851;SDS011;11592;45.460;9.240;2023-04-09T07:14:33;18.85;;;13.00;;
22851;SDS011;11592;45.460;9.240;2023-04-09T07:17:00;20.00;;;12.32;;
22851;SDS011;11592;45.460;9.240;2023-04-09T07:19:27;20.17;;;13.02;;
22851;SDS011;11592;45.460;9.240;2023-04-09T07:21:54;19.15;;;13.38;;
22851;SDS011;11592;45.460;9.240;2023-04-09T07:24:21;19.25;;;12.63;;
22851;SDS011;11592;45.460;9.240;2023-04-09T07:26:47;17.98;;;12.10;;
22851;SDS011;11592;45.460;9.240;2023-04-09T07:29:17;19.30;;;12.73;;
22851;SDS011;11592;45.460;9.240;2023-04-09T07:31:45;18.38;;;12.70;;
22851;SDS011;11592;45.460;9.240;2023-04-09T07:34:12;20.55;;;13.30;;
22851;SDS011;11592;45.460;9.240;2023-04-09T07:36:40;20.55;;;13.32;;
22851;SDS011;11592;45.460;9.240;2023-04-09T07:39:08;24.52;;;13.82;;
22851;SDS011;11592;45.460;9.240;2023-04-09T07:41:34;18.63;;;12.68;;
22851;SDS011;11592;45.460;9.240;2023-04-09T07:44:02;21.98;;;11.93;;
22851;SDS011;11592;45.460;9.240;2023-04-09T07:46:31;19.88;;;12.43;;
22851;SDS011;11592;45.460;9.240;2023-04-09T07:48:58;21.98;;;13.18;;
22851;SDS011;11592;45.460;9.240;2023-04-09T07:51:25;19.30;;;12.32;;
22851;SDS011;11592;45.460;9.240;2023-04-09T07:53:52;18.50;;;12.18;;
22851;SDS011;11592;45.460;9.240;2023-04-09T07:56:19;19.02;;;12.75;;
22851;SDS011;11592;45.460;9.240;2023-04-09T07:58:46;19.13;;;12.65;;
22851;SDS011;11592;45.460;9.240;2023-04-09T08:01:14;18.02;;;11.45;;
22851;SDS011;11592;45.460;9.240;2023-04-09T08:03:41;16.98;;;10.68;;
22851;SDS011;11592;45.460;9.240;2023-04-09T08:06:08;18.15;;;11.10;;
22851;SDS011;11592;45.460;9.240;2023-04-09T08:08:35;15.25;;;10.88;;
22851;SDS011;11592;45.460;9.240;2023-04-09T08:11:02;19.40;;;12.75;;
22851;SDS011;11592;45.460;9.240;2023-04-09T08:13:29;16.60;;;11.45;;
22851;SDS011;11592;45.460;9.240;2023-04-09T08:15:56;20.15;;;10.95;;
22851;SDS011;11592;45.460;9.240;2023-04-09T08:18:27;15.65;;;10.48;;
22851;SDS011;11592;45.460;9.240;2023-04-09T08:20:54;19.13;;;11.52;;
22851;SDS011;11592;45.460;9.240;2023-04-09T08:23:22;14.90;;;10.35;;
22851;SDS011;11592;45.460;9.240;2023-04-09T08:25:48;15.25;;;10.48;;
22851;SDS011;11592;45.460;9.240;2023-04-09T08:28:15;16.35;;;10.27;;
22851;SDS011;11592;45.460;9.240;2023-04-09T08:30:42;16.30;;;10.57;;
22851;SDS011;11592;45.460;9.240;2023-04-09T08:33:09;21.35;;;10.82;;
22851;SDS011;11592;45.460;9.240;2023-04-09T08:35:36;17.83;;;10.13;;
22851;SDS011;11592;45.460;9.240;2023-04-09T08:38:05;15.48;;;10.20;;
22851;SDS011;11592;45.460;9.240;2023-04-09T08:40:35;23.15;;;11.13;;
22851;SDS011;11592;45.460;9.240;2023-04-09T08:43:03;17.70;;;9.82;;
22851;SDS011;11592;45.460;9.240;2023-04-09T08:45:32;14.63;;;10.45;;
22851;SDS011;11592;45.460;9.240;2023-04-09T08:47:59;14.52;;;10.85;;
22851;SDS011;11592;45.460;9.240;2023-04-09T08:50:29;17.65;;;11.95;;
22851;SDS011;11592;45.460;9.240;2023-04-09T08:52:57;13.75;;;9.02;;
22851;SDS011;11592;45.460;9.240;2023-04-09T08:55:27;14.35;;;9.05;;
22851;SDS011;11592;45.460;9.240;2023-04-09T08:57:54;14.63;;;8.63;;
22851;SDS011;11592;45.460;9.240;2023-04-09T09:00:21;14.73;;;10.20;;
22851;SDS011;11592;45.460;9.240;2023-04-09T09:03:04;12.45;;;8.75;;
22851;SDS011;11592;45.460;9.240;2023-04-09T09:05:40;14.00;;;8.85;;
22851;SDS011;11592;45.460;9.240;2023-04-09T09:08:09;12.27;;;9.00;;
22851;SDS011;11592;45.460;9.240;2023-04-09T09:10:47;14.82;;;8.77;;
22851;SDS011;11592;45.460;9.240;2023-04-09T09:13:18;15.10;;;8.85;;
22851;SDS011;11592;45.460;9.240;2023-04-09T09:15:52;14.10;;;9.75;;
22851;SDS011;11592;45.460;9.240;2023-04-09T09:18:40;14.85;;;9.95;;
22851;SDS011;11592;45.460;9.240;2023-04-09T09:21:11;18.17;;;9.45;;
22851;SDS011;11592;45.460;9.240;2023-04-09T09:23:39;15.70;;;9.48;;
22851;SDS011;11592;45.460;9.240;2023-04-09T09:26:11;12.85;;;8.32;;
22851;SDS011;11592;45.460;9.240;2023-04-09T09:28:39;13.80;;;9.18;;
22851;SDS011;11592;45.460;9.240;2023-04-09T09:31:10;12.70;;;8.77;;
22851;SDS011;11592;45.460;9.240;2023-04-09T09:33:38;11.80;;;7.80;;
22851;SDS011;11592;45.460;9.240;2023-04-09T09:36:05;12.73;;;8.32;;
22851;SDS011;11592;45.460;9.240;2023-04-09T09:38:50;15.75;;;9.82;;
22851;SDS011;11592;45.460;9.240;2023-04-09T09:41:20;13.65;;;8.60;;
22851;SDS011;11592;45.460;9.240;2023-04-09T09:43:47;13.05;;;9.10;;
22851;SDS011;11592;45.460;9.240;2023-04-09T09:46:14;13.18;;;8.70;;
22851;SDS011;11592;45.460;9.240;2023-04-09T09:48:42;16.92;;;9.73;;
22851;SDS011;11592;45.460;9.240;2023-04-09T09:51:11;12.05;;;8.80;;
22851;SDS011;11592;45.460;9.240;2023-04-09T09:53:40;12.20;;;7.82;;
22851;SDS011;11592;45.460;9.240;2023-04-09T09:56:14;10.07;;;7.45;;
22851;SDS011;11592;45.460;9.240;2023-04-09T09:58:46;15.27;;;8.65;;
22851;SDS011;11592;45.460;9.240;2023-04-09T10:01:18;12.82;;;9.07;;
22851;SDS011;11592;45.460;9.240;2023-04-09T10:03:48;13.95;;;9.40;;
22851;SDS011;11592;45.460;9.240;2023-04-09T10:06:16;12.48;;;8.93;;
22851;SDS011;11592;45.460;9.240;2023-04-09T10:08:44;14.50;;;9.68;;
22851;SDS011;11592;45.460;9.240;2023-04-09T10:11:14;12.40;;;9.23;;
22851;SDS011;11592;45.460;9.240;2023-04-09T10:13:42;15.77;;;9.32;;
22851;SDS011;11592;45.460;9.240;2023-04-09T10:16:16;12.88;;;8.45;;
22851;SDS011;11592;45.460;9.240;2023-04-09T10:18:44;13.95;;;9.02;;
22851;SDS011;11592;45.460;9.240;2023-04-09T10:24:03;14.85;;;8.48;;
22851;SDS011;11592;45.460;9.240;2023-04-09T10:26:33;13.15;;;7.47;;
22851;SDS011;11592;45.460;9.240;2023-04-09T10:29:04;13.98;;;7.85;;
22851;SDS011;11592;45.460;9.240;2023-04-09T10:34:36;15.38;;;7.57;;
22851;SDS011;11592;45.460;9.240;2023-04-09T10:37:12;13.38;;;8.40;;
22851;SDS011;11592;45.460;9.240;2023-04-09T10:39:46;10.10;;;7.50;;
22851;SDS011;11592;45.460;9.240;2023-04-09T10:42:14;11.95;;;7.97;;
22851;SDS011;11592;45.460;9.240;2023-04-09T10:44:44;11.82;;;8.52;;
22851;SDS011;11592;45.460;9.240;2023-04-09T10:47:11;13.23;;;7.78;;
22851;SDS011;11592;45.460;9.240;2023-04-09T10:49:56;11.97;;;8.03;;
22851;SDS011;11592;45.460;9.240;2023-04-09T10:52:28;12.63;;;7.05;;
22851;SDS011;11592;45.460;9.240;2023-04-09T10:54:55;16.42;;;8.45;;
22851;SDS011;11592;45.460;9.240;2023-04-09T10:57:22;15.05;;;7.97;;
22851;SDS011;11592;45.460;9.240;2023-04-09T10:59:53;11.05;;;7.63;;
22851;SDS011;11592;45.460;9.240;2023-04-09T11:05:18;12.57;;;7.90;;
22851;SDS011;11592;45.460;9.240;2023-04-09T11:10:34;11.10;;;8.40;;
22851;SDS011;11592;45.460;9.240;2023-04-09T11:13:02;12.88;;;8.77;;
22851;SDS011;11592;45.460;9.240;2023-04-09T11:15:30;13.60;;;8.30;;
22851;SDS011;11592;45.460;9.240;2023-04-09T11:17:59;11.63;;;8.00;;
22851;SDS011;11592;45.460;9.240;2023-04-09T11:20:27;10.45;;;7.47;;
22851;SDS011;11592;45.460;9.240;2023-04-09T11:22:56;12.15;;;7.35;;
22851;SDS011;11592;45.460;9.240;2023-04-09T11:25:25;9.27;;;7.03;;
22851;SDS011;11592;45.460;9.240;2023-04-09T11:27:53;12.50;;;8.75;;
22851;SDS011;11592;45.460;9.240;2023-04-09T11:30:20;10.68;;;7.05;;
22851;SDS011;11592;45.460;9.240;2023-04-09T11:32:47;10.75;;;7.40;;
22851;SDS011;11592;45.460;9.240;2023-04-09T11:35:18;10.57;;;7.25;;
22851;SDS011;11592;45.460;9.240;2023-04-09T11:37:47;10.65;;;7.03;;
22851;SDS011;11592;45.460;9.240;2023-04-09T11:40:16;9.32;;;6.90;;
22851;SDS011;11592;45.460;9.240;2023-04-09T11:42:49;9.02;;;6.78;;
22851;SDS011;11592;45.460;9.240;2023-04-09T11:45:17;8.45;;;6.45;;
22851;SDS011;11592;45.460;9.240;2023-04-09T11:47:46;14.07;;;7.57;;
22851;SDS011;11592;45.460;9.240;2023-04-09T11:50:14;11.38;;;7.10;;
22851;SDS011;11592;45.460;9.240;2023-04-09T11:52:42;10.48;;;7.82;;
22851;SDS011;11592;45.460;9.240;2023-04-09T11:55:10;10.88;;;6.60;;
22851;SDS011;11592;45.460;9.240;2023-04-09T11:57:44;10.10;;;7.00;;
22851;SDS011;11592;45.460;9.240;2023-04-09T12:00:12;7.30;;;5.88;;
22851;SDS011;11592;45.460;9.240;2023-04-09T12:02:44;9.18;;;5.43;;
22851;SDS011;11592;45.460;9.240;2023-04-09T12:05:20;10.73;;;5.97;;
22851;SDS011;11592;45.460;9.240;2023-04-09T12:10:25;6.70;;;5.25;;
22851;SDS011;11592;45.460;9.240;2023-04-09T12:13:02;7.45;;;5.40;;
22851;SDS011;11592;45.460;9.240;2023-04-09T12:15:32;10.32;;;4.90;;
22851;SDS011;11592;45.460;9.240;2023-04-09T12:18:02;13.10;;;5.28;;
22851;SDS011;11592;45.460;9.240;2023-04-09T12:20:32;7.97;;;5.38;;
22851;SDS011;11592;45.460;9.240;2023-04-09T12:23:01;7.40;;;4.90;;
22851;SDS011;11592;45.460;9.240;2023-04-09T12:25:33;6.60;;;4.93;;
22851;SDS011;11592;45.460;9.240;2023-04-09T12:28:02;7.63;;;5.00;;
22851;SDS011;11592;45.460;9.240;2023-04-09T12:30:29;7.82;;;5.68;;
22851;SDS011;11592;45.460;9.240;2023-04-09T12:32:56;8.80;;;6.22;;
22851;SDS011;11592;45.460;9.240;2023-04-09T12:35:23;8.38;;;5.60;;
22851;SDS011;11592;45.460;9.240;2023-04-09T12:37:50;7.18;;;5.20;;
22851;SDS011;11592;45.460;9.240;2023-04-09T12:40:18;10.70;;;5.85;;
22851;SDS011;11592;45.460;9.240;2023-04-09T12:42:45;9.55;;;5.57;;
22851;SDS011;11592;45.460;9.240;2023-04-09T12:45:14;6.28;;;5.00;;
22851;SDS011;11592;45.460;9.240;2023-04-09T12:47:42;6.35;;;4.78;;
22851;SDS011;11592;45.460;9.240;2023-04-09T12:50:10;5.18;;;3.97;;
22851;SDS011;11592;45.460;9.240;2023-04-09T12:52:38;4.82;;;3.72;;
22851;SDS011;11592;45.460;9.240;2023-04-09T12:55:05;7.60;;;4.75;;
22851;SDS011;11592;45.460;9.240;2023-04-09T12:57:33;5.35;;;4.50;;
22851;SDS011;11592;45.460;9.240;2023-04-09T13:00:00;6.45;;;3.92;;
22851;SDS011;11592;45.460;9.240;2023-04-09T13:02:26;4.95;;;4.25;;
22851;SDS011;11592;45.460;9.240;2023-04-09T13:04:53;7.55;;;4.90;;
22851;SDS011;11592;45.460;9.240;2023-04-09T13:07:20;5.95;;;4.35;;
22851;SDS011;11592;45.460;9.240;2023-04-09T13:09:48;4.38;;;3.78;;
22851;SDS011;11592;45.460;9.240;2023-04-09T13:12:15;6.47;;;4.78;;
22851;SDS011;11592;45.460;9.240;2023-04-09T13:14:43;7.45;;;5.22;;
22851;SDS011;11592;45.460;9.240;2023-04-09T13:17:11;5.47;;;4.28;;
22851;SDS011;11592;45.460;9.240;2023-04-09T13:19:39;6.53;;;4.43;;
22851;SDS011;11592;45.460;9.240;2023-04-09T13:22:08;7.15;;;4.70;;
22851;SDS011;11592;45.460;9.240;2023-04-09T13:24:36;6.38;;;4.50;;
22851;SDS011;11592;45.460;9.240;2023-04-09T13:27:03;8.80;;;4.85;;
22851;SDS011;11592;45.460;9.240;2023-04-09T13:29:31;7.35;;;4.63;;
22851;SDS011;11592;45.460;9.240;2023-04-09T13:31:58;5.60;;;4.18;;
22851;SDS011;11592;45.460;9.240;2023-04-09T13:34:26;5.95;;;4.70;;
22851;SDS011;11592;45.460;9.240;2023-04-09T13:36:53;9.23;;;4.68;;
22851;SDS011;11592;45.460;9.240;2023-04-09T13:39:20;5.93;;;5.10;;
22851;SDS011;11592;45.460;9.240;2023-04-09T13:41:47;9.82;;;3.80;;
22851;SDS011;11592;45.460;9.240;2023-04-09T13:44:13;6.88;;;4.47;;
22851;SDS011;11592;45.460;9.240;2023-04-09T13:46:40;6.82;;;4.80;;
22851;SDS011;11592;45.460;9.240;2023-04-09T13:49:07;6.72;;;5.00;;
22851;SDS011;11592;45.460;9.240;2023-04-09T13:51:34;5.35;;;4.03;;
22851;SDS011;11592;45.460;9.240;2023-04-09T13:54:01;7.22;;;4.85;;
22851;SDS011;11592;45.460;9.240;2023-04-09T13:56:31;4.20;;;3.72;;
22851;SDS011;11592;45.460;9.240;2023-04-09T13:58:57;6.80;;;4.68;;
22851;SDS011;11592;45.460;9.240;2023-04-09T14:01:25;5.90;;;4.13;;
22851;SDS011;11592;45.460;9.240;2023-04-09T14:03:53;6.80;;;4.35;;
22851;SDS011;11592;45.460;9.240;2023-04-09T14:06:20;6.50;;;4.30;;
22851;SDS011;11592;45.460;9.240;2023-04-09T14:08:47;6.00;;;4.75;;
22851;SDS011;11592;45.460;9.240;2023-04-09T14:11:14;5.97;;;4.03;;
22851;SDS011;11592;45.460;9.240;2023-04-09T14:13:42;5.68;;;4.32;;
22851;SDS011;11592;45.460;9.240;2023-04-09T14:16:08;5.97;;;4.90;;
22851;SDS011;11592;45.460;9.240;2023-04-09T14:18:36;6.82;;;4.18;;
22851;SDS011;11592;45.460;9.240;2023-04-09T14:21:05;7.65;;;4.30;;
22851;SDS011;11592;45.460;9.240;2023-04-09T14:23:35;4.95;;;4.38;;
22851;SDS011;11592;45.460;9.240;2023-04-09T14:26:02;6.38;;;4.88;;
22851;SDS011;11592;45.460;9.240;2023-04-09T14:28:30;8.48;;;4.93;;
22851;SDS011;11592;45.460;9.240;2023-04-09T14:30:58;7.03;;;4.63;;
22851;SDS011;11592;45.460;9.240;2023-04-09T14:33:25;7.03;;;4.82;;
22851;SDS011;11592;45.460;9.240;2023-04-09T14:35:53;8.20;;;4.72;;
22851;SDS011;11592;45.460;9.240;2023-04-09T14:38:20;8.90;;;4.57;;
22851;SDS011;11592;45.460;9.240;2023-04-09T14:40:49;8.13;;;3.78;;
22851;SDS011;11592;45.460;9.240;2023-04-09T14:43:16;5.53;;;3.78;;
22851;SDS011;11592;45.460;9.240;2023-04-09T14:45:43;7.57;;;4.65;;
22851;SDS011;11592;45.460;9.240;2023-04-09T14:48:10;6.03;;;4.07;;
22851;SDS011;11592;45.460;9.240;2023-04-09T14:50:37;6.40;;;4.15;;
22851;SDS011;11592;45.460;9.240;2023-04-09T14:53:04;9.15;;;4.75;;
22851;SDS011;11592;45.460;9.240;2023-04-09T14:55:30;6.50;;;4.35;;
22851;SDS011;11592;45.460;9.240;2023-04-09T14:57:57;5.60;;;4.50;;
22851;SDS011;11592;45.460;9.240;2023-04-09T15:00:25;6.15;;;4.40;;
22851;SDS011;11592;45.460;9.240;2023-04-09T15:02:51;6.47;;;4.03;;